Time;durP1;ratioP1;P1;durP2;ratioP2;P2;SDS_P1;SDS_P2;PMS_P1;PMS_P2;Temp;Humidity;BMP_temperature;BMP_pressure;BME280_temperature;BME280_humidity;BME280_pressure;Samples;Min_cycle;Max_cycle;Signal;HPM_P1;HPM_P2
2023/02/02 00:01:30;;;;;;;5.30;1.60;;;;;;;7.46;69.38;99318.00;5026217;27;102795;-78
2023/02/02 00:03:58;;;;;;;7.70;1.77;;;;;;;7.36;70.18;99324.63;5023675;28;102630;-78
2023/02/02 00:06:29;;;;;;;5.13;1.60;;;;;;;7.59;69.52;99322.56;5020019;28;103415;-78
2023/02/02 00:09:00;;;;;;;5.37;1.57;;;;;;;7.26;70.62;99320.75;5023408;28;103244;-78
2023/02/02 00:11:29;;;;;;;2.83;1.30;;;;;;;7.42;70.32;99314.66;5025577;28;102942;-77
2023/02/02 00:13:57;;;;;;;6.57;1.70;;;;;;;7.43;70.44;99316.38;5021249;28;103066;-78
2023/02/02 00:16:40;;;;;;;4.27;1.63;;;;;;;7.47;70.55;99312.66;5023895;28;104287;-78
2023/02/02 00:19:13;;;;;;;5.30;1.30;;;;;;;7.36;71.26;99301.81;5022565;28;103632;-77
2023/02/02 00:21:41;;;;;;;5.37;1.60;;;;;;;7.47;71.09;99306.53;5021497;28;102594;-77
2023/02/02 00:24:13;;;;;;;7.80;1.97;;;;;;;7.28;72.00;99311.88;5020349;28;104306;-78
2023/02/02 00:26:44;;;;;;;9.00;2.03;;;;;;;7.50;71.18;99307.25;5020326;28;104520;-77
2023/02/02 00:29:16;;;;;;;4.47;1.83;;;;;;;7.38;71.39;99313.09;5024028;27;103876;-78
2023/02/02 00:31:44;;;;;;;4.60;1.93;;;;;;;7.36;71.48;99317.59;5020660;28;103117;-77
2023/02/02 00:34:12;;;;;;;3.97;1.63;;;;;;;7.45;71.00;99309.25;5020846;27;103904;-78
2023/02/02 00:36:40;;;;;;;7.37;1.57;;;;;;;7.44;71.26;99314.56;5022687;28;103041;-78
2023/02/02 00:39:15;;;;;;;3.70;1.77;;;;;;;7.42;71.41;99309.41;5017636;28;103026;-77
2023/02/02 00:41:46;;;;;;;4.60;1.40;;;;;;;7.32;71.50;99312.56;5021639;28;103126;-77
2023/02/02 00:47:01;;;;;;;7.17;2.10;;;;;;;7.47;71.43;99317.06;5017763;28;103104;-77
2023/02/02 00:49:29;;;;;;;6.37;1.90;;;;;;;7.45;71.20;99311.88;5002632;28;104115;-77
2023/02/02 00:51:57;;;;;;;5.43;1.90;;;;;;;7.40;71.75;99311.28;5021444;28;102767;-77
2023/02/02 00:54:25;;;;;;;8.13;1.83;;;;;;;7.44;71.53;99312.78;5021954;28;102641;-78
2023/02/02 00:56:55;;;;;;;3.97;2.03;;;;;;;7.51;71.35;99298.44;5019552;28;104006;-77
2023/02/02 00:59:26;;;;;;;6.40;1.80;;;;;;;7.37;71.70;99300.03;5023918;27;103240;-78
2023/02/02 01:01:54;;;;;;;6.17;1.97;;;;;;;7.26;72.31;99295.31;5035713;27;102583;-77
2023/02/02 01:04:22;;;;;;;4.20;1.90;;;;;;;7.44;72.13;99297.03;5016710;28;102602;-79
2023/02/02 01:06:50;;;;;;;5.70;1.83;;;;;;;7.32;72.27;99304.69;5019510;28;104153;-77
2023/02/02 01:09:18;;;;;;;5.87;2.10;;;;;;;7.31;72.46;99303.84;5018104;28;103107;-78
2023/02/02 01:11:46;;;;;;;5.27;1.60;;;;;;;7.43;72.10;99311.13;5018548;28;102500;-78
2023/02/02 01:14:15;;;;;;;6.13;1.80;;;;;;;7.40;72.39;99310.41;5026484;28;102784;-78
2023/02/02 01:16:44;;;;;;;7.60;2.27;;;;;;;7.28;72.69;99311.00;5023180;28;103222;-77
2023/02/02 01:19:13;;;;;;;5.33;2.50;;;;;;;7.57;72.20;99308.66;5022309;28;104206;-78
2023/02/02 01:21:42;;;;;;;6.13;1.83;;;;;;;7.44;72.83;99320.69;5023384;28;102754;-77
2023/02/02 01:24:15;;;;;;;8.47;1.93;;;;;;;7.42;73.55;99305.91;5025958;28;102822;-78
2023/02/02 01:26:43;;;;;;;7.50;1.93;;;;;;;7.45;73.99;99311.03;5020730;28;103151;-78
2023/02/02 01:29:12;;;;;;;2.40;1.00;;;;;;;7.47;74.70;99324.94;5022155;28;104846;-78
2023/02/02 01:31:41;;;;;;;3.70;1.40;;;;;;;7.32;75.20;99323.09;5023534;28;103192;-78
2023/02/02 01:34:10;;;;;;;4.43;1.67;;;;;;;7.31;74.73;99316.97;5033801;27;104443;-76
2023/02/02 01:36:38;;;;;;;4.03;1.50;;;;;;;7.51;74.23;99319.47;5023921;28;103277;-77
2023/02/02 01:39:06;;;;;;;5.80;1.57;;;;;;;7.56;74.18;99320.09;5017396;27;103984;-77
2023/02/02 01:41:35;;;;;;;2.90;1.40;;;;;;;7.40;74.99;99326.19;5021249;28;102591;-78
2023/02/02 01:44:07;;;;;;;4.80;1.70;;;;;;;7.46;75.21;99331.16;5020942;28;105164;-77
2023/02/02 01:46:36;;;;;;;3.80;1.50;;;;;;;7.45;75.18;99326.81;5022373;28;103630;-77
2023/02/02 01:49:14;;;;;;;6.60;1.63;;;;;;;7.28;76.33;99324.16;5017396;28;103222;-78
2023/02/02 01:51:49;;;;;;;4.83;1.90;;;;;;;7.42;75.97;99330.44;5019712;27;103536;-78
2023/02/02 01:54:21;;;;;;;6.67;1.47;;;;;;;7.53;75.53;99317.59;5020470;28;103350;-78
2023/02/02 01:56:55;;;;;;;6.63;1.90;;;;;;;7.40;75.83;99320.94;5017493;28;104332;-78
2023/02/02 01:59:27;;;;;;;4.80;1.80;;;;;;;7.39;75.91;99325.31;5020103;28;103226;-76
2023/02/02 02:01:56;;;;;;;6.90;2.10;;;;;;;7.29;76.57;99329.34;5021539;28;103399;-77
2023/02/02 02:04:31;;;;;;;8.00;2.67;;;;;;;7.41;76.26;99323.47;5024510;27;102516;-77
2023/02/02 02:07:02;;;;;;;5.83;1.80;;;;;;;7.62;75.28;99315.44;5022461;28;104166;-77
2023/02/02 02:09:31;;;;;;;5.73;2.40;;;;;;;7.42;75.69;99317.28;5020956;28;103090;-79
2023/02/02 02:12:02;;;;;;;2.53;1.60;;;;;;;7.25;76.93;99298.88;5019295;28;102895;-79
2023/02/02 02:17:32;;;;;;;6.40;2.33;;;;;;;7.31;77.28;99322.22;5020546;28;105167;-78
2023/02/02 02:27:02;;;;;;;7.63;1.97;;;;;;;7.46;77.65;99320.63;5019126;27;102713;-77
2023/02/02 02:29:49;;;;;;;6.60;2.13;;;;;;;7.53;77.15;99314.97;5017586;28;103969;-78
2023/02/02 02:32:34;;;;;;;4.80;1.97;;;;;;;7.41;77.66;99320.84;5024399;28;103071;-78
2023/02/02 02:35:09;;;;;;;3.67;1.33;;;;;;;7.40;77.18;99315.66;5017665;28;103263;-78
2023/02/02 02:37:45;;;;;;;4.00;1.60;;;;;;;7.55;76.67;99315.75;5021019;28;102807;-79
2023/02/02 02:40:25;;;;;;;6.03;1.90;;;;;;;7.27;77.94;99325.91;5020549;28;103647;-78
2023/02/02 02:42:58;;;;;;;4.90;2.20;;;;;;;7.35;77.56;99317.69;5018690;28;104099;-78
2023/02/02 02:45:28;;;;;;;4.93;2.00;;;;;;;7.35;77.61;99312.41;5022443;28;102778;-77
2023/02/02 02:48:00;;;;;;;6.57;2.10;;;;;;;7.22;78.03;99322.69;5021153;28;102854;-78
2023/02/02 02:50:31;;;;;;;5.57;1.90;;;;;;;7.29;77.96;99315.34;5017381;27;104934;-77
2023/02/02 02:53:05;;;;;;;10.43;2.40;;;;;;;7.24;78.15;99320.81;5024183;28;103278;-78
2023/02/02 02:55:44;;;;;;;10.90;2.93;;;;;;;7.34;77.96;99329.97;5020922;28;102824;-78
2023/02/02 02:58:16;;;;;;;3.93;1.73;;;;;;;7.34;78.21;99321.22;5037320;27;103203;-78
2023/02/02 03:00:58;;;;;;;5.97;2.40;;;;;;;7.21;78.89;99331.50;5021458;28;104259;-77
2023/02/02 03:03:52;;;;;;;5.57;2.13;;;;;;;7.39;78.37;99335.84;5024774;28;103246;-77
2023/02/02 03:06:23;;;;;;;10.70;2.10;;;;;;;7.50;77.90;99333.53;5026363;28;102881;-77
2023/02/02 03:08:59;;;;;;;7.27;2.40;;;;;;;7.53;77.77;99327.25;5025192;27;102782;-78
2023/02/02 03:11:28;;;;;;;9.43;2.23;;;;;;;7.33;78.32;99332.66;5026848;28;104087;-78
2023/02/02 03:13:57;;;;;;;6.13;2.07;;;;;;;7.35;78.39;99339.56;5026177;28;103755;-78
2023/02/02 03:16:26;;;;;;;5.00;1.80;;;;;;;7.28;78.84;99327.63;5026851;28;102716;-76
2023/02/02 03:18:56;;;;;;;6.27;1.93;;;;;;;7.30;78.70;99331.03;5026407;28;103543;-76
2023/02/02 03:21:24;;;;;;;6.90;1.93;;;;;;;7.34;78.39;99322.09;5023217;28;104359;-78
2023/02/02 03:23:52;;;;;;;7.83;1.77;;;;;;;7.31;78.49;99326.63;5020619;28;103242;-79
2023/02/02 03:26:21;;;;;;;6.70;2.40;;;;;;;7.01;79.65;99328.97;5025459;28;102727;-78
2023/02/02 03:28:49;;;;;;;5.17;2.00;;;;;;;7.30;78.81;99322.28;5021255;27;103774;-77
2023/02/02 03:31:18;;;;;;;4.40;1.67;;;;;;;7.26;78.66;99319.00;5023288;28;103382;-77
2023/02/02 03:33:46;;;;;;;4.90;2.03;;;;;;;7.51;77.73;99316.84;5015023;28;103233;-76
2023/02/02 03:36:16;;;;;;;5.00;1.83;;;;;;;7.35;78.30;99315.06;5028258;28;103855;-78
2023/02/02 03:38:43;;;;;;;3.20;1.47;;;;;;;7.33;78.18;99312.47;5025877;28;104126;-78
2023/02/02 03:41:11;;;;;;;5.03;1.73;;;;;;;7.35;78.33;99308.03;5024996;28;103302;-78
2023/02/02 03:43:39;;;;;;;7.30;1.90;;;;;;;7.29;78.06;99308.31;5021358;28;103323;-77
2023/02/02 03:46:07;;;;;;;6.53;2.00;;;;;;;7.28;78.48;99317.13;5018804;28;102629;-77
2023/02/02 03:48:38;;;;;;;4.50;1.80;;;;;;;7.56;77.45;99317.44;5015630;28;104013;-78
2023/02/02 03:51:07;;;;;;;5.73;1.80;;;;;;;7.40;78.39;99316.53;5023983;28;103127;-77
2023/02/02 03:53:39;;;;;;;5.17;2.03;;;;;;;7.37;78.36;99324.56;5018264;28;103195;-78
2023/02/02 03:56:07;;;;;;;8.43;2.10;;;;;;;7.44;78.24;99333.84;5023515;28;102952;-80
2023/02/02 03:58:37;;;;;;;4.03;1.67;;;;;;;7.42;78.16;99330.44;5023460;28;103880;-80
2023/02/02 04:01:08;;;;;;;7.93;1.97;;;;;;;7.31;78.48;99338.00;5017316;28;104213;-79
2023/02/02 04:03:38;;;;;;;6.17;1.80;;;;;;;7.38;78.57;99328.88;5018912;28;103172;-80
2023/02/02 04:06:06;;;;;;;5.87;1.93;;;;;;;7.30;78.55;99333.66;5024667;28;102950;-78
2023/02/02 04:08:34;;;;;;;5.03;1.83;;;;;;;7.32;78.66;99339.72;5018732;28;103730;-78
2023/02/02 04:11:04;;;;;;;10.50;2.27;;;;;;;7.28;78.43;99339.91;5021592;28;102891;-78
2023/02/02 04:13:32;;;;;;;6.73;2.00;;;;;;;7.16;79.05;99338.75;5023939;27;103010;-80
2023/02/02 04:16:00;;;;;;;5.73;2.10;;;;;;;6.94;79.80;99344.19;5020255;28;103215;-78
2023/02/02 04:18:29;;;;;;;4.67;1.60;;;;;;;7.44;78.40;99344.34;5022638;28;103925;-80
2023/02/02 04:20:59;;;;;;;3.70;1.80;;;;;;;7.46;78.24;99341.66;5023510;28;103836;-80
2023/02/02 04:23:28;;;;;;;3.20;1.50;;;;;;;7.62;77.68;99347.84;5031227;28;103360;-80
2023/02/02 04:25:56;;;;;;;4.90;1.67;;;;;;;7.63;77.10;99349.56;5028608;28;102511;-80
2023/02/02 04:28:28;;;;;;;6.77;2.07;;;;;;;7.41;78.33;99355.00;5020544;28;103996;-79
2023/02/02 04:30:57;;;;;;;6.87;2.30;;;;;;;7.44;78.17;99360.13;5025839;28;103140;-80
2023/02/02 04:33:26;;;;;;;6.17;1.63;;;;;;;7.46;77.75;99358.28;5021306;28;104029;-80
2023/02/02 04:35:55;;;;;;;6.20;1.60;;;;;;;7.60;77.74;99357.59;5023773;28;102968;-80
2023/02/02 04:38:24;;;;;;;7.53;1.63;;;;;;;7.52;77.51;99349.25;5021206;27;104009;-80
2023/02/02 04:40:53;;;;;;;7.47;2.43;;;;;;;7.51;77.53;99356.28;5032458;27;104368;-79
2023/02/02 04:43:21;;;;;;;7.07;2.57;;;;;;;7.58;77.41;99362.06;5023236;28;102567;-80
2023/02/02 04:45:56;;;;;;;9.10;2.23;;;;;;;7.65;76.77;99373.13;5032221;28;102631;-81
2023/02/02 04:48:24;;;;;;;5.87;1.90;;;;;;;7.63;76.96;99369.75;5028221;28;102992;-81
2023/02/02 04:50:59;;;;;;;5.40;2.03;;;;;;;7.54;77.03;99377.16;5024960;28;105089;-82
2023/02/02 04:53:28;;;;;;;6.10;1.80;;;;;;;7.50;77.40;99370.34;5026476;28;104033;-74
2023/02/02 04:57:35;;;;;;;6.50;1.83;;;;;;;7.65;76.88;99379.25;5126341;27;102550;-69
2023/02/02 05:00:03;;;;;;;6.37;1.97;;;;;;;7.44;77.37;99373.28;5109806;27;103956;-69
2023/02/02 05:02:31;;;;;;;4.43;1.90;;;;;;;7.51;77.17;99379.94;5102222;27;107149;-69
2023/02/02 05:04:58;;;;;;;6.47;1.90;;;;;;;7.37;77.42;99371.88;5101862;27;103172;-69
2023/02/02 05:07:26;;;;;;;7.90;2.30;;;;;;;7.52;77.33;99380.81;5107115;27;102621;-69
2023/02/02 05:09:54;;;;;;;5.00;1.93;;;;;;;7.61;76.94;99393.47;5106257;27;102818;-70
2023/02/02 05:12:22;;;;;;;5.43;1.97;;;;;;;7.63;76.84;99396.03;5100885;27;103523;-69
2023/02/02 05:14:51;;;;;;;2.97;1.70;;;;;;;7.62;76.62;99394.34;5105571;27;102836;-70
2023/02/02 05:17:19;;;;;;;5.37;1.90;;;;;;;7.65;76.77;99391.56;5105596;27;104169;-69
2023/02/02 05:19:47;;;;;;;5.00;1.97;;;;;;;7.67;76.82;99398.44;5105627;27;102825;-69
2023/02/02 05:22:16;;;;;;;7.20;2.23;;;;;;;7.63;76.73;99399.53;5103207;27;104308;-68
2023/02/02 05:24:45;;;;;;;6.70;2.03;;;;;;;7.78;76.58;99390.00;5103884;27;103219;-69
2023/02/02 05:27:13;;;;;;;8.27;2.33;;;;;;;7.51;76.86;99398.34;5101307;27;102785;-69
2023/02/02 05:29:40;;;;;;;5.47;2.20;;;;;;;7.62;76.77;99394.34;5105008;27;102619;-69
2023/02/02 05:32:10;;;;;;;6.07;1.80;;;;;;;7.60;76.54;99402.31;5101325;27;103786;-69
2023/02/02 05:34:37;;;;;;;6.60;2.20;;;;;;;7.57;77.05;99398.06;5087947;27;102766;-69
2023/02/02 05:37:05;;;;;;;6.10;1.97;;;;;;;7.63;76.96;99406.56;5106572;27;102702;-68
2023/02/02 05:39:33;;;;;;;5.97;2.20;;;;;;;7.63;76.89;99396.03;5108631;27;102763;-68
2023/02/02 05:42:01;;;;;;;7.13;2.27;;;;;;;7.79;76.35;99396.97;5101441;27;103926;-69
2023/02/02 05:44:29;;;;;;;5.43;2.00;;;;;;;7.77;76.31;99398.84;5105573;27;103210;-69
2023/02/02 05:46:56;;;;;;;7.60;2.20;;;;;;;7.74;76.45;99410.38;5102697;27;102821;-69
2023/02/02 05:49:26;;;;;;;8.70;2.63;;;;;;;7.71;76.65;99407.03;5105557;27;102711;-69
2023/02/02 05:51:56;;;;;;;6.20;2.13;;;;;;;7.64;76.84;99411.72;5103370;27;102998;-69
2023/02/02 05:54:24;;;;;;;4.43;2.20;;;;;;;7.72;77.02;99411.38;5107354;27;103279;-69
2023/02/02 05:56:54;;;;;;;6.53;2.13;;;;;;;7.56;77.24;99398.97;5103757;27;102678;-69
2023/02/02 05:59:23;;;;;;;7.30;2.47;;;;;;;7.82;76.19;99396.81;5109190;27;102718;-69
2023/02/02 06:01:51;;;;;;;7.63;2.20;;;;;;;7.54;77.12;99392.94;5101937;27;103069;-68
2023/02/02 06:04:19;;;;;;;6.90;2.83;;;;;;;7.56;77.12;99400.75;5098801;27;103790;-69
2023/02/02 06:06:48;;;;;;;8.70;2.47;;;;;;;7.61;76.83;99393.47;5104009;27;102662;-75
2023/02/02 06:09:15;;;;;;;4.37;1.70;;;;;;;7.67;76.61;99397.56;5098663;27;102534;-77
2023/02/02 06:11:44;;;;;;;5.33;1.77;;;;;;;7.51;77.24;99393.09;5091081;27;103315;-69
2023/02/02 06:14:11;;;;;;;7.47;2.07;;;;;;;7.73;76.77;99392.00;5070348;27;103956;-69
2023/02/02 06:16:41;;;;;;;6.90;2.10;;;;;;;7.70;76.55;99414.06;5088318;27;102570;-70
2023/02/02 06:19:09;;;;;;;6.43;2.40;;;;;;;7.77;76.58;99412.00;5086704;27;102647;-73
2023/02/02 06:21:37;;;;;;;6.27;2.00;;;;;;;7.72;76.68;99412.19;5075355;27;104305;-72
2023/02/02 06:24:07;;;;;;;6.13;2.07;;;;;;;7.72;76.87;99411.38;5083872;27;103223;-71
2023/02/02 06:26:35;;;;;;;5.73;2.30;;;;;;;7.72;76.48;99416.63;5090981;27;102703;-69
2023/02/02 06:29:03;;;;;;;7.20;2.63;;;;;;;7.73;76.89;99418.31;5082359;27;103300;-68
2023/02/02 06:31:32;;;;;;;5.37;2.37;;;;;;;7.67;77.03;99426.50;5054932;27;104205;-68
2023/02/02 06:34:00;;;;;;;7.90;2.60;;;;;;;7.76;77.12;99436.59;5085375;27;103242;-68
2023/02/02 06:36:28;;;;;;;8.83;2.50;;;;;;;7.76;76.80;99429.56;5084697;27;102640;-66
2023/02/02 06:38:57;;;;;;;7.80;2.43;;;;;;;7.70;77.38;99434.25;5079927;27;103144;-65
2023/02/02 06:41:26;;;;;;;8.27;2.37;;;;;;;7.69;77.09;99432.56;5058609;27;103515;-65
2023/02/02 06:43:54;;;;;;;5.87;2.33;;;;;;;7.64;77.37;99440.66;5060017;27;104111;-65
2023/02/02 06:46:22;;;;;;;10.13;2.87;;;;;;;7.59;77.42;99427.75;5083409;27;102708;-68
2023/02/02 06:48:50;;;;;;;6.20;2.57;;;;;;;7.56;77.73;99438.41;5054965;27;103079;-66
2023/02/02 06:51:18;;;;;;;8.10;2.23;;;;;;;7.78;77.08;99437.34;4993522;28;105385;-66
2023/02/02 06:53:48;;;;;;;8.17;2.40;;;;;;;7.77;76.96;99436.53;5005008;28;103239;-65
2023/02/02 06:56:16;;;;;;;9.30;2.83;;;;;;;7.74;77.08;99433.19;5002136;28;102629;-66
2023/02/02 06:58:45;;;;;;;7.93;2.47;;;;;;;7.69;77.30;99427.31;5011634;28;102926;-65
2023/02/02 07:01:14;;;;;;;4.87;2.20;;;;;;;7.75;76.72;99437.53;5008236;28;103282;-66
2023/02/02 07:03:41;;;;;;;6.10;2.43;;;;;;;7.67;77.24;99434.41;5001661;27;103183;-65
2023/02/02 07:06:14;;;;;;;6.73;2.37;;;;;;;7.61;77.25;99432.09;5009971;28;102854;-66
2023/02/02 07:08:42;;;;;;;5.47;1.97;;;;;;;7.58;77.40;99436.56;5012328;28;103786;-66
2023/02/02 07:11:11;;;;;;;6.17;2.03;;;;;;;7.59;77.67;99442.66;5007633;28;104664;-66
2023/02/02 07:13:45;;;;;;;5.67;2.23;;;;;;;7.66;77.61;99443.25;4998011;28;103217;-65
2023/02/02 07:16:13;;;;;;;5.60;2.00;;;;;;;7.65;77.21;99431.00;4999053;28;102636;-66
2023/02/02 07:18:42;;;;;;;5.37;1.80;;;;;;;7.75;76.70;99427.84;5006067;27;102906;-66
2023/02/02 07:21:17;;;;;;;4.33;1.60;;;;;;;7.78;76.81;99442.63;5008189;27;104055;-66
2023/02/02 07:23:45;;;;;;;6.77;1.80;;;;;;;7.76;76.48;99436.59;5002595;28;103397;-66
2023/02/02 07:26:17;;;;;;;18.50;3.50;;;;;;;7.71;76.97;99441.22;5003373;28;103642;-66
2023/02/02 07:28:46;;;;;;;3.43;1.53;;;;;;;7.55;77.35;99449.03;5010057;28;103822;-66
2023/02/02 07:31:16;;;;;;;5.70;1.87;;;;;;;7.80;76.76;99440.78;5004763;28;103308;-66
2023/02/02 07:33:45;;;;;;;25.70;4.57;;;;;;;7.53;77.25;99454.34;5007176;27;103275;-66
2023/02/02 07:36:19;;;;;;;22.30;3.97;;;;;;;7.74;76.56;99456.88;4998849;28;103165;-66
2023/02/02 07:38:52;;;;;;;4.90;1.83;;;;;;;7.79;76.34;99460.13;5016504;27;103142;-66
2023/02/02 07:41:21;;;;;;;7.20;2.03;;;;;;;7.69;76.58;99449.19;5011271;27;103711;-66
2023/02/02 07:43:52;;;;;;;7.00;2.20;;;;;;;7.73;76.80;99449.88;5004836;27;103176;-66
2023/02/02 07:46:20;;;;;;;24.97;3.30;;;;;;;7.84;76.42;99448.44;5007045;28;103754;-66
2023/02/02 07:48:49;;;;;;;42.67;5.83;;;;;;;7.65;76.47;99444.16;4999280;27;102631;-66
2023/02/02 07:51:18;;;;;;;34.57;5.00;;;;;;;7.69;76.59;99445.72;5008772;28;104313;-66
2023/02/02 07:53:46;;;;;;;6.53;1.73;;;;;;;7.77;76.52;99430.41;5007056;28;103260;-66
2023/02/02 07:56:18;;;;;;;5.30;2.10;;;;;;;7.75;76.31;99424.38;5005228;28;102663;-65
2023/02/02 07:58:46;;;;;;;48.53;8.03;;;;;;;7.84;76.20;99413.38;5003208;28;103143;-66
2023/02/02 08:01:16;;;;;;;62.30;8.77;;;;;;;7.76;76.30;99428.69;5001938;27;103520;-65
2023/02/02 08:03:44;;;;;;;8.20;2.27;;;;;;;7.90;75.80;99428.88;5002984;28;103211;-66
2023/02/02 08:06:15;;;;;;;4.83;1.80;;;;;;;7.91;75.32;99425.31;5007940;28;102939;-66
2023/02/02 08:08:43;;;;;;;5.97;2.00;;;;;;;8.07;75.09;99426.22;5004129;28;103945;-66
2023/02/02 08:11:12;;;;;;;77.33;9.47;;;;;;;8.06;74.81;99437.69;5004879;28;103986;-66
2023/02/02 08:13:41;;;;;;;85.87;10.47;;;;;;;8.14;74.62;99446.91;4998210;28;104080;-66
2023/02/02 08:16:09;;;;;;;119.53;14.73;;;;;;;8.02;74.89;99447.53;5004850;27;104038;-65
2023/02/02 08:18:39;;;;;;;41.43;6.03;;;;;;;8.16;74.38;99450.31;5000643;27;102951;-66
2023/02/02 08:21:08;;;;;;;10.43;2.10;;;;;;;8.02;74.46;99462.47;5002786;28;103261;-65
2023/02/02 08:23:37;;;;;;;5.00;1.87;;;;;;;8.14;74.54;99467.09;4997240;28;103709;-66
2023/02/02 08:26:10;;;;;;;6.50;2.00;;;;;;;8.30;73.64;99475.97;5005767;28;103079;-66
2023/02/02 08:28:39;;;;;;;4.40;1.80;;;;;;;8.28;73.91;99480.44;5004468;28;104104;-66
2023/02/02 08:31:09;;;;;;;6.17;1.60;;;;;;;8.15;73.59;99479.34;5000429;28;103026;-65
2023/02/02 08:33:37;;;;;;;6.77;2.00;;;;;;;8.20;74.55;99492.28;5005078;28;104155;-66
2023/02/02 08:36:11;;;;;;;5.10;1.93;;;;;;;8.36;74.18;99502.00;5003634;28;102696;-67
2023/02/02 08:38:39;;;;;;;4.70;1.77;;;;;;;8.54;73.56;99501.03;5007190;28;103448;-67
2023/02/02 08:41:09;;;;;;;4.73;1.70;;;;;;;8.43;73.69;99511.28;5001647;28;103958;-67
2023/02/02 08:43:37;;;;;;;3.33;1.80;;;;;;;8.53;73.05;99511.69;5006850;28;103429;-67
2023/02/02 08:46:06;;;;;;;6.77;1.50;;;;;;;8.50;73.80;99512.69;5005638;28;102933;-66
2023/02/02 08:48:35;;;;;;;3.97;1.63;;;;;;;8.25;74.50;99522.72;5005627;27;102678;-66
2023/02/02 08:51:03;;;;;;;8.30;2.13;;;;;;;8.27;74.15;99520.88;5010654;27;104305;-66
2023/02/02 08:53:33;;;;;;;8.03;2.03;;;;;;;8.26;74.45;99520.91;5015439;28;103281;-67
2023/02/02 08:56:03;;;;;;;9.00;2.20;;;;;;;8.25;74.54;99529.75;5012418;28;102875;-66
2023/02/02 08:58:32;;;;;;;8.67;2.13;;;;;;;8.20;74.49;99518.63;5012371;28;103985;-67
2023/02/02 09:01:05;;;;;;;6.70;2.17;;;;;;;8.31;74.78;99519.78;5010813;28;105325;-67
2023/02/02 09:03:32;;;;;;;11.57;2.73;;;;;;;8.25;74.99;99527.13;5015364;28;103253;-66
2023/02/02 09:06:05;;;;;;;6.50;2.40;;;;;;;8.26;74.64;99524.41;5004860;28;102693;-67
2023/02/02 09:08:34;;;;;;;5.17;2.20;;;;;;;8.19;75.07;99528.28;5009081;28;103896;-68
2023/02/02 09:11:07;;;;;;;6.30;2.20;;;;;;;8.04;75.76;99534.28;5005361;28;103936;-67
2023/02/02 09:13:35;;;;;;;4.17;2.07;;;;;;;8.17;75.64;99535.38;5006982;28;103321;-67
2023/02/02 09:16:08;;;;;;;7.97;2.43;;;;;;;8.11;75.22;99538.34;5009308;27;102659;-67
2023/02/02 09:18:38;;;;;;;6.63;2.87;;;;;;;8.31;74.97;99535.59;5005602;28;102754;-67
2023/02/02 09:21:08;;;;;;;8.17;2.27;;;;;;;8.01;76.24;99537.94;5009926;28;104063;-67
2023/02/02 09:23:39;;;;;;;8.63;2.80;;;;;;;8.10;76.12;99541.88;5004718;27;103208;-67
2023/02/02 09:26:12;;;;;;;6.73;2.87;;;;;;;8.10;76.13;99542.75;5004816;28;102870;-67
2023/02/02 09:28:41;;;;;;;5.57;2.10;;;;;;;8.11;76.25;99536.53;5007542;28;103621;-67
2023/02/02 09:31:09;;;;;;;8.40;2.80;;;;;;;8.12;76.20;99540.03;5009366;27;103280;-67
2023/02/02 09:33:38;;;;;;;6.73;2.30;;;;;;;8.20;76.08;99532.59;5009496;28;103296;-67
2023/02/02 09:36:07;;;;;;;7.47;2.73;;;;;;;8.08;76.27;99536.69;5008686;27;102643;-66
2023/02/02 09:38:36;;;;;;;7.90;2.60;;;;;;;8.08;76.25;99547.22;5007937;28;104110;-66
2023/02/02 09:41:28;;;;;;;8.03;2.53;;;;;;;8.20;76.17;99543.13;5005043;27;103321;-66
2023/02/02 09:44:05;;;;;;;6.30;2.80;;;;;;;7.97;76.93;99548.69;5008261;28;103186;-65
2023/02/02 09:46:46;;;;;;;5.47;2.23;;;;;;;7.99;77.70;99552.09;5009885;28;103517;-65
2023/02/02 09:49:22;;;;;;;5.23;2.50;;;;;;;8.01;77.28;99550.22;5011646;28;102596;-67
2023/02/02 09:51:56;;;;;;;6.40;2.23;;;;;;;7.95;78.43;99561.03;5014206;28;104021;-68
2023/02/02 09:54:33;;;;;;;6.17;2.40;;;;;;;8.17;77.59;99561.72;5008351;27;103217;-66
2023/02/02 09:57:04;;;;;;;6.80;2.50;;;;;;;8.14;77.74;99559.22;5013073;28;102643;-68
2023/02/02 09:59:36;;;;;;;9.17;2.67;;;;;;;8.09;78.10;99563.88;5015059;28;102605;-68
2023/02/02 10:02:13;;;;;;;10.17;2.90;;;;;;;8.14;78.56;99556.59;5008921;28;103385;-68
2023/02/02 10:04:45;;;;;;;7.47;3.17;;;;;;;8.18;78.54;99558.16;5013098;28;103371;-67
2023/02/02 10:07:17;;;;;;;5.30;3.17;;;;;;;8.07;79.05;99565.72;5007068;28;103058;-67
2023/02/02 10:09:50;;;;;;;6.37;2.43;;;;;;;8.22;78.32;99569.41;5016716;28;104179;-67
2023/02/02 10:12:31;;;;;;;6.30;2.27;;;;;;;8.37;77.71;99579.19;5010290;28;103034;-69
2023/02/02 10:15:05;;;;;;;4.00;2.20;;;;;;;8.07;78.53;99577.13;5012016;28;103233;-67
2023/02/02 10:17:40;;;;;;;5.37;2.83;;;;;;;8.09;78.17;99574.38;5009923;28;102763;-67
2023/02/02 10:20:20;;;;;;;8.57;2.57;;;;;;;7.96;78.12;99573.28;5011351;28;103818;-67
2023/02/02 10:22:50;;;;;;;4.67;2.50;;;;;;;8.09;77.76;99585.78;5015054;28;104011;-67
2023/02/02 10:25:24;;;;;;;5.37;2.37;;;;;;;8.40;77.02;99579.91;5010981;28;103790;-67
2023/02/02 10:28:00;;;;;;;7.97;2.50;;;;;;;8.38;76.92;99570.38;5013030;28;102693;-66
2023/02/02 10:30:44;;;;;;;9.30;3.00;;;;;;;8.27;77.08;99584.06;5009167;28;103731;-66
2023/02/02 10:33:20;;;;;;;5.13;2.50;;;;;;;8.38;76.55;99581.75;5011542;28;103244;-67
2023/02/02 10:35:56;;;;;;;9.67;2.00;;;;;;;8.39;76.66;99575.56;5012676;27;103320;-67
2023/02/02 10:38:35;;;;;;;7.23;2.60;;;;;;;8.19;77.92;99583.56;5012049;28;102583;-67
2023/02/02 10:41:14;;;;;;;5.93;2.37;;;;;;;8.44;76.89;99593.78;5014434;28;103155;-67
2023/02/02 10:44:13;;;;;;;5.87;2.27;;;;;;;8.14;77.70;99582.91;5014333;28;103998;-67
2023/02/02 10:46:46;;;;;;;6.40;2.53;;;;;;;8.09;78.96;99590.19;4998658;28;104290;-67
2023/02/02 10:49:21;;;;;;;9.10;2.57;;;;;;;8.08;78.70;99580.59;5004464;28;102799;-67
2023/02/02 10:51:54;;;;;;;5.57;2.17;;;;;;;8.29;77.62;99581.34;5004063;28;102668;-67
2023/02/02 10:54:38;;;;;;;4.63;1.80;;;;;;;8.24;78.45;99578.91;5004565;28;104178;-67
2023/02/02 10:57:34;;;;;;;6.87;2.43;;;;;;;8.20;78.35;99587.88;5006954;28;103277;-67
2023/02/02 11:00:11;;;;;;;7.43;2.07;;;;;;;8.22;77.56;99569.41;5008564;28;102747;-67
2023/02/02 11:02:38;;;;;;;5.27;2.10;;;;;;;8.28;77.53;99580.50;5006332;28;104111;-67
2023/02/02 11:08:13;;;;;;;5.03;2.00;;;;;;;8.51;76.24;99582.84;4990787;28;104267;-67
2023/02/02 11:10:42;;;;;;;5.47;2.30;;;;;;;8.58;76.19;99573.72;5002572;27;102830;-68
2023/02/02 11:13:16;;;;;;;5.17;2.00;;;;;;;8.67;75.28;99575.03;5008303;28;102893;-68
2023/02/02 11:15:43;;;;;;;11.00;1.83;;;;;;;8.40;76.52;99569.34;5004710;28;106555;-66
2023/02/02 11:18:27;;;;;;;4.47;1.90;;;;;;;8.72;74.95;99576.50;5009366;28;103179;-67
2023/02/02 11:20:55;;;;;;;5.97;2.03;;;;;;;8.50;75.39;99565.34;5004471;28;102676;-67
2023/02/02 11:23:27;;;;;;;4.23;1.93;;;;;;;8.57;74.79;99556.19;5007463;28;104095;-67
2023/02/02 11:25:59;;;;;;;6.80;2.30;;;;;;;8.66;74.79;99571.56;5002211;27;104174;-67
2023/02/02 11:28:34;;;;;;;5.17;1.70;;;;;;;8.67;75.04;99570.59;5009449;28;103204;-67
2023/02/02 11:31:02;;;;;;;5.73;1.83;;;;;;;8.54;75.33;99569.53;4995702;27;102734;-67
2023/02/02 11:33:32;;;;;;;6.00;2.10;;;;;;;8.75;75.21;99564.97;5008827;27;103480;-67
2023/02/02 11:36:01;;;;;;;4.87;2.47;;;;;;;8.74;74.80;99564.09;5008947;27;104619;-67
2023/02/02 11:38:30;;;;;;;4.73;2.03;;;;;;;8.78;75.25;99558.69;5005763;27;103219;-67
2023/02/02 11:41:03;;;;;;;5.87;2.13;;;;;;;8.72;75.17;99571.25;5005025;28;102609;-71
2023/02/02 11:43:40;;;;;;;8.43;2.53;;;;;;;8.62;75.42;99563.84;5005667;28;103665;-69
2023/02/02 11:46:18;;;;;;;6.47;2.10;;;;;;;8.68;75.55;99563.56;5007562;28;103278;-69
2023/02/02 11:48:49;;;;;;;5.03;1.90;;;;;;;8.71;74.41;99566.91;5008141;28;103350;-69
2023/02/02 11:51:22;;;;;;;4.17;1.97;;;;;;;8.60;75.58;99565.72;5005139;28;102901;-69
2023/02/02 11:54:03;;;;;;;5.20;1.90;;;;;;;8.64;75.36;99567.28;5009734;28;102792;-69
2023/02/02 11:56:31;;;;;;;5.77;1.60;;;;;;;8.55;76.16;99558.06;4999218;28;107297;-68
2023/02/02 11:59:02;;;;;;;7.60;2.10;;;;;;;8.72;75.55;99555.44;5004582;27;103294;-69
2023/02/02 12:01:33;;;;;;;6.10;1.93;;;;;;;8.79;75.16;99553.31;5010498;28;102690;-69
2023/02/02 12:04:03;;;;;;;6.13;1.80;;;;;;;8.55;75.86;99558.06;5006518;28;103902;-70
2023/02/02 12:06:35;;;;;;;4.13;1.87;;;;;;;8.48;75.03;99561.06;5009256;28;104311;-70